createdAt,value
2019-05-26T00:00:49.812Z,982.383
2019-05-26T00:02:49.806Z,982.378
2019-05-26T00:04:50.367Z,982.368
2019-05-26T00:06:50.611Z,982.364
2019-05-26T00:08:49.669Z,982.357
2019-05-26T00:10:49.787Z,982.350
2019-05-26T00:12:49.740Z,982.337
2019-05-26T00:14:49.872Z,982.317
2019-05-26T00:16:49.944Z,982.266
2019-05-26T00:18:50.027Z,982.247
2019-05-26T00:20:50.155Z,982.223
2019-05-26T00:22:50.243Z,982.196
2019-05-26T00:24:50.325Z,982.176
2019-05-26T00:26:50.452Z,982.172
2019-05-26T00:28:50.533Z,982.168
2019-05-26T00:30:49.653Z,982.160
2019-05-26T00:32:49.843Z,982.133
2019-05-26T00:34:50.303Z,982.108
2019-05-26T00:36:50.555Z,982.087
2019-05-26T00:38:50.606Z,982.083
2019-05-26T00:40:49.654Z,982.083
2019-05-26T00:42:49.745Z,982.069
2019-05-26T00:44:49.908Z,982.037
2019-05-26T00:46:50.183Z,982.035
2019-05-26T00:48:50.281Z,982.020
2019-05-26T00:50:50.385Z,982.025
2019-05-26T00:52:50.540Z,982.029
2019-05-26T00:54:49.800Z,982.044
2019-05-26T00:56:50.122Z,982.041
2019-05-26T00:58:50.236Z,982.038
2019-05-26T01:00:50.358Z,981.999
2019-05-26T01:02:50.443Z,981.978
2019-05-26T01:04:49.857Z,981.982
2019-05-26T01:06:50.013Z,981.996
2019-05-26T01:08:50.144Z,981.986
2019-05-26T01:10:50.273Z,981.988
2019-05-26T01:12:50.353Z,981.980
2019-05-26T01:14:49.726Z,981.990
2019-05-26T01:16:50.122Z,981.997
2019-05-26T01:18:50.163Z,981.988
2019-05-26T01:20:50.293Z,981.993
2019-05-26T01:22:54.227Z,982.003
2019-05-26T01:24:50.235Z,982.026
2019-05-26T01:26:50.312Z,982.079
2019-05-26T01:28:50.314Z,982.129
2019-05-26T01:30:50.394Z,982.136
2019-05-26T01:32:50.581Z,982.158
2019-05-26T01:34:50.208Z,982.162
2019-05-26T01:36:50.381Z,982.136
2019-05-26T01:38:50.421Z,982.131
2019-05-26T01:40:50.459Z,982.133
2019-05-26T01:42:50.465Z,982.140
2019-05-26T01:44:50.493Z,982.113
2019-05-26T01:46:49.607Z,982.122
2019-05-26T01:48:49.820Z,982.127
2019-05-26T01:50:49.933Z,982.125
2019-05-26T01:52:49.979Z,982.131
2019-05-26T01:54:50.075Z,982.141
2019-05-26T01:56:50.230Z,982.134
2019-05-26T01:58:50.334Z,982.109
2019-05-26T02:00:50.424Z,982.082
2019-05-26T02:02:50.407Z,982.082
2019-05-26T02:04:49.821Z,982.073
2019-05-26T02:06:50.041Z,982.056
2019-05-26T02:08:49.792Z,982.067
2019-05-26T02:10:49.871Z,982.068
2019-05-26T02:12:50.013Z,982.079
2019-05-26T02:14:50.143Z,982.067
2019-05-26T02:16:50.339Z,982.070
2019-05-26T02:18:50.351Z,982.079
2019-05-26T02:20:50.415Z,982.125
2019-05-26T02:22:50.508Z,982.141
2019-05-26T02:24:49.632Z,982.155
2019-05-26T02:26:49.913Z,982.167
2019-05-26T02:28:50.114Z,982.173
2019-05-26T02:30:50.272Z,982.173
2019-05-26T02:32:50.436Z,982.210
2019-05-26T02:34:49.867Z,982.215
2019-05-26T02:36:50.093Z,982.215
2019-05-26T02:39:03.564Z,982.219
2019-05-26T02:40:50.226Z,982.203
2019-05-26T02:42:50.393Z,982.178
2019-05-26T02:44:50.569Z,982.155
2019-05-26T02:46:49.758Z,982.119
2019-05-26T02:48:49.725Z,982.123
2019-05-26T02:50:49.849Z,982.134
2019-05-26T02:52:49.914Z,982.104
2019-05-26T02:54:50.012Z,982.095
2019-05-26T02:56:50.258Z,982.080
2019-05-26T02:58:50.385Z,982.082
2019-05-26T03:00:50.468Z,982.102
2019-05-26T03:02:49.743Z,982.121
2019-05-26T03:04:50.128Z,982.127
2019-05-26T03:06:50.295Z,982.127
2019-05-26T03:08:50.364Z,982.113
2019-05-26T03:10:50.458Z,982.107
2019-05-26T03:12:50.566Z,982.122
2019-05-26T03:14:49.619Z,982.133
2019-05-26T03:16:49.876Z,982.125
2019-05-26T03:18:49.978Z,982.094
2019-05-26T03:20:50.101Z,982.101
2019-05-26T03:22:50.187Z,982.113
2019-05-26T03:24:50.343Z,982.135
2019-05-26T03:26:50.429Z,982.136
2019-05-26T03:28:50.564Z,982.132
2019-05-26T03:30:49.775Z,982.134
2019-05-26T03:32:49.838Z,982.133
2019-05-26T03:34:50.282Z,982.125
2019-05-26T03:36:50.450Z,982.143
2019-05-26T03:38:50.496Z,982.154
2019-05-26T03:40:50.594Z,982.175
2019-05-26T03:42:49.713Z,982.190
2019-05-26T03:44:49.830Z,982.197
2019-05-26T03:46:50.088Z,982.191
2019-05-26T03:48:50.383Z,982.186
2019-05-26T03:50:49.762Z,982.174
2019-05-26T03:52:49.752Z,982.169
2019-05-26T03:54:49.869Z,982.189
2019-05-26T03:56:50.021Z,982.209
2019-05-26T03:58:50.192Z,982.239
2019-05-26T04:00:50.282Z,982.257
2019-05-26T04:02:50.336Z,982.261
2019-05-26T04:04:49.801Z,982.276
2019-05-26T04:06:50.018Z,982.307
2019-05-26T04:08:50.174Z,982.336
2019-05-26T04:10:50.309Z,982.363
2019-05-26T04:12:50.359Z,982.345
2019-05-26T04:14:50.443Z,982.318
2019-05-26T04:16:49.841Z,982.316
2019-05-26T04:18:49.896Z,982.301
2019-05-26T04:20:50.008Z,982.288
2019-05-26T04:22:50.181Z,982.271
2019-05-26T04:24:50.293Z,982.274
2019-05-26T04:26:50.563Z,982.302
2019-05-26T04:28:49.657Z,982.325
2019-05-26T04:30:49.747Z,982.327
2019-05-26T04:32:49.896Z,982.342
2019-05-26T04:34:50.315Z,982.342
2019-05-26T04:36:50.532Z,982.351
2019-05-26T04:38:49.723Z,982.362
2019-05-26T04:40:49.760Z,982.362
2019-05-26T04:42:49.878Z,982.352
2019-05-26T04:44:49.917Z,982.352
2019-05-26T04:46:50.123Z,982.355
2019-05-26T04:48:50.347Z,982.367
2019-05-26T04:50:50.510Z,982.404
2019-05-26T04:53:07.475Z,982.432
2019-05-26T04:54:50.395Z,982.435
2019-05-26T04:56:49.648Z,982.445
2019-05-26T04:58:49.763Z,982.464
2019-05-26T05:00:49.837Z,982.491
2019-05-26T05:02:49.941Z,982.516
2019-05-26T05:04:50.603Z,982.529
2019-05-26T05:06:49.840Z,982.536
2019-05-26T05:08:50.057Z,982.528
2019-05-26T05:10:50.092Z,982.576
2019-05-26T05:12:50.133Z,982.596
2019-05-26T05:14:50.230Z,982.595
2019-05-26T05:16:50.406Z,982.634
2019-05-26T05:18:50.450Z,982.637
2019-05-26T05:20:50.418Z,982.629
2019-05-26T05:22:50.591Z,982.646
2019-05-26T05:24:50.642Z,982.662
2019-05-26T05:26:49.822Z,982.664
2019-05-26T05:28:49.919Z,982.664
2019-05-26T05:30:49.958Z,982.660
2019-05-26T05:32:49.981Z,982.626
2019-05-26T05:34:50.515Z,982.621
2019-05-26T05:36:50.074Z,982.628
2019-05-26T05:38:50.048Z,982.593
2019-05-26T05:41:00.557Z,982.593
2019-05-26T05:42:50.518Z,982.557
2019-05-26T05:44:49.645Z,982.553
2019-05-26T05:46:49.759Z,982.553
2019-05-26T05:48:49.891Z,982.546
2019-05-26T05:50:49.917Z,982.540
2019-05-26T05:52:49.981Z,982.564
2019-05-26T05:54:49.971Z,982.577
2019-05-26T05:56:50.161Z,982.591
2019-05-26T05:58:50.271Z,982.606
2019-05-26T06:00:50.368Z,982.624
2019-05-26T06:02:50.425Z,982.636
2019-05-26T06:04:49.840Z,982.635
2019-05-26T06:06:50.085Z,982.640
2019-05-26T06:08:50.216Z,982.625
2019-05-26T06:10:50.276Z,982.643
2019-05-26T06:12:50.451Z,982.639
2019-05-26T06:14:50.532Z,982.626
2019-05-26T06:16:49.735Z,982.626
2019-05-26T06:18:49.868Z,982.626
2019-05-26T06:20:50.009Z,982.610
2019-05-26T06:22:50.119Z,982.616
2019-05-26T06:24:50.181Z,982.606
2019-05-26T06:26:50.347Z,982.598
2019-05-26T06:28:52.972Z,982.598
2019-05-26T06:30:49.996Z,982.614
2019-05-26T06:32:50.261Z,982.605
2019-05-26T06:34:49.645Z,982.606
2019-05-26T06:36:49.841Z,982.607
2019-05-26T06:38:49.959Z,982.641
2019-05-26T06:40:50.036Z,982.641
2019-05-26T06:42:50.093Z,982.693
2019-05-26T06:44:54.450Z,982.709
2019-05-26T06:46:49.723Z,982.734
2019-05-26T06:48:49.730Z,982.749
2019-05-26T06:50:49.867Z,982.752
2019-05-26T06:52:49.952Z,982.752
2019-05-26T06:54:49.957Z,982.741
2019-05-26T06:56:50.260Z,982.732
2019-05-26T06:58:50.544Z,982.743
2019-05-26T07:00:50.546Z,982.761
2019-05-26T07:02:49.721Z,982.760
2019-05-26T07:04:50.075Z,982.767
2019-05-26T07:06:50.436Z,982.754
2019-05-26T07:08:50.558Z,982.759
2019-05-26T07:10:50.519Z,982.755
2019-05-26T07:12:50.608Z,982.754
2019-05-26T07:14:49.651Z,982.754
2019-05-26T07:16:49.987Z,982.743
2019-05-26T07:18:50.022Z,982.772
2019-05-26T07:20:50.117Z,982.793
2019-05-26T07:22:50.207Z,982.828
2019-05-26T07:24:50.331Z,982.833
2019-05-26T07:26:50.617Z,982.834
2019-05-26T07:28:50.700Z,982.815
2019-05-26T07:30:50.078Z,982.819
2019-05-26T07:32:50.188Z,982.830
2019-05-26T07:34:49.780Z,982.818
2019-05-26T07:36:50.005Z,982.773
2019-05-26T07:38:50.179Z,982.762
2019-05-26T07:40:50.164Z,982.761
2019-05-26T07:42:50.206Z,982.756
2019-05-26T07:44:50.252Z,982.756
2019-05-26T07:46:50.521Z,982.751
2019-05-26T07:48:50.521Z,982.754
2019-05-26T07:50:50.625Z,982.741
2019-05-26T07:52:49.610Z,982.737
2019-05-26T07:54:49.726Z,982.725
2019-05-26T07:56:50.092Z,982.723
2019-05-26T07:58:50.201Z,982.724
2019-05-26T08:00:50.314Z,982.727
2019-05-26T08:02:50.430Z,982.734
2019-05-26T08:04:49.685Z,982.733
2019-05-26T08:06:49.861Z,982.707
2019-05-26T08:08:49.915Z,982.693
2019-05-26T08:10:50.005Z,982.677
2019-05-26T08:12:50.043Z,982.676
2019-05-26T08:14:50.215Z,982.661
2019-05-26T08:16:50.411Z,982.648
2019-05-26T08:18:50.508Z,982.643
2019-05-26T08:20:49.650Z,982.661
2019-05-26T08:22:49.774Z,982.665
2019-05-26T08:24:49.820Z,982.639
2019-05-26T08:26:49.963Z,982.616
2019-05-26T08:28:50.128Z,982.597
2019-05-26T08:30:50.124Z,982.597
2019-05-26T08:32:50.283Z,982.601
2019-05-26T08:34:49.686Z,982.591
2019-05-26T08:36:49.926Z,982.558
2019-05-26T08:38:50.002Z,982.549
2019-05-26T08:40:49.966Z,982.514
2019-05-26T08:42:50.078Z,982.527
2019-05-26T08:44:50.174Z,982.526
2019-05-26T08:46:50.377Z,982.509
2019-05-26T08:48:50.440Z,982.499
2019-05-26T08:50:49.662Z,982.483
2019-05-26T08:52:49.904Z,982.436
2019-05-26T08:54:50.069Z,982.426
2019-05-26T08:56:50.485Z,982.461
2019-05-26T08:58:49.644Z,982.461
2019-05-26T09:00:49.878Z,982.452
2019-05-26T09:02:50.177Z,982.434
2019-05-26T09:04:50.513Z,982.415
2019-05-26T09:06:49.902Z,982.437
2019-05-26T09:08:50.001Z,982.435
2019-05-26T09:10:50.127Z,982.438
2019-05-26T09:13:01.803Z,982.419
2019-05-26T09:14:50.390Z,982.421
2019-05-26T09:16:49.659Z,982.400
2019-05-26T09:18:49.710Z,982.394
2019-05-26T09:20:49.718Z,982.379
2019-05-26T09:22:49.834Z,982.386
2019-05-26T09:24:49.926Z,982.386
2019-05-26T09:26:50.167Z,982.403
2019-05-26T09:28:50.335Z,982.403
2019-05-26T09:30:50.391Z,982.379
2019-05-26T09:32:50.528Z,982.365
2019-05-26T09:34:49.993Z,982.358
2019-05-26T09:36:50.238Z,982.343
2019-05-26T09:38:50.316Z,982.337
2019-05-26T09:40:50.370Z,982.322
2019-05-26T09:42:50.555Z,982.330
2019-05-26T09:44:49.637Z,982.350
2019-05-26T09:46:49.994Z,982.295
2019-05-26T09:48:50.081Z,982.298
2019-05-26T09:50:50.133Z,982.292
2019-05-26T09:52:50.164Z,982.310
2019-05-26T09:54:50.223Z,982.328
2019-05-26T09:56:50.452Z,982.307
2019-05-26T09:58:50.547Z,982.307
2019-05-26T10:00:50.668Z,982.220
2019-05-26T10:02:49.699Z,982.204
2019-05-26T10:04:50.095Z,982.160
2019-05-26T10:06:50.327Z,982.146
2019-05-26T10:08:50.474Z,982.116
2019-05-26T10:10:49.820Z,982.088
2019-05-26T10:12:49.898Z,982.065
2019-05-26T10:14:50.016Z,982.062
2019-05-26T10:16:50.288Z,982.074
2019-05-26T10:18:50.341Z,982.073
2019-05-26T10:20:50.421Z,982.052
2019-05-26T10:22:50.568Z,982.016
2019-05-26T10:24:50.434Z,982.032
2019-05-26T10:26:50.475Z,982.013
2019-05-26T10:28:50.570Z,981.993
2019-05-26T10:30:49.675Z,981.969
2019-05-26T10:32:49.609Z,981.974
2019-05-26T10:34:50.202Z,981.967
2019-05-26T10:36:50.346Z,981.912
2019-05-26T10:38:50.309Z,981.947
2019-05-26T10:40:50.414Z,981.963
2019-05-26T10:42:50.509Z,981.949
2019-05-26T10:44:49.642Z,981.899
2019-05-26T10:46:49.827Z,981.876
2019-05-26T10:48:49.845Z,981.829
2019-05-26T10:50:49.899Z,981.827
2019-05-26T10:52:49.952Z,981.815
2019-05-26T10:54:50.046Z,981.815
2019-05-26T10:56:50.288Z,981.787
2019-05-26T10:58:50.330Z,981.769
2019-05-26T11:00:50.328Z,981.756
2019-05-26T11:02:50.365Z,981.726
2019-05-26T11:04:49.736Z,981.660
2019-05-26T11:06:49.950Z,981.660
2019-05-26T11:08:50.024Z,981.671
2019-05-26T11:10:50.172Z,981.650
2019-05-26T11:12:50.235Z,981.549
2019-05-26T11:14:50.362Z,981.541
2019-05-26T11:16:50.483Z,981.542
2019-05-26T11:18:50.281Z,981.546
2019-05-26T11:20:50.353Z,981.559
2019-05-26T11:22:50.424Z,981.579
2019-05-26T11:24:50.398Z,981.598
2019-05-26T11:26:49.754Z,981.565
2019-05-26T11:28:49.864Z,981.485
2019-05-26T11:30:49.972Z,981.477
2019-05-26T11:32:49.956Z,981.498
2019-05-26T11:35:10.377Z,981.450
2019-05-26T11:36:50.189Z,981.442
2019-05-26T11:38:50.268Z,981.417
2019-05-26T11:40:50.438Z,981.382
2019-05-26T11:42:49.621Z,981.346
2019-05-26T11:44:49.664Z,981.271
2019-05-26T11:46:49.752Z,981.282
2019-05-26T11:48:49.840Z,981.271
2019-05-26T11:50:50.046Z,981.285
2019-05-26T11:52:50.208Z,981.267
2019-05-26T11:54:50.231Z,981.261
2019-05-26T11:56:50.538Z,981.250
2019-05-26T11:58:50.586Z,981.227
2019-05-26T12:00:49.705Z,981.226
2019-05-26T12:02:49.655Z,981.226
2019-05-26T12:04:50.219Z,981.164
2019-05-26T12:06:50.483Z,981.148
2019-05-26T12:08:50.517Z,981.126
2019-05-26T12:10:50.584Z,981.101
2019-05-26T12:12:49.643Z,981.086
2019-05-26T12:14:49.874Z,981.100
2019-05-26T12:16:50.133Z,981.075
2019-05-26T12:18:50.240Z,981.056
2019-05-26T12:20:50.293Z,981.054
2019-05-26T12:22:50.408Z,981.021
2019-05-26T12:24:50.542Z,980.983
2019-05-26T12:26:49.718Z,980.940
2019-05-26T12:28:49.828Z,980.898
2019-05-26T12:30:49.999Z,980.858
2019-05-26T12:32:50.126Z,980.813
2019-05-26T12:34:50.590Z,980.789
2019-05-26T12:36:49.996Z,980.811
2019-05-26T12:38:50.175Z,980.785
2019-05-26T12:40:50.198Z,980.762
2019-05-26T12:42:50.279Z,980.716
2019-05-26T12:44:50.485Z,980.701
2019-05-26T12:46:49.808Z,980.682
2019-05-26T12:48:49.834Z,980.678
2019-05-26T12:50:49.830Z,980.669
2019-05-26T12:52:49.913Z,980.664
2019-05-26T12:54:50.030Z,980.652
2019-05-26T12:56:50.288Z,980.655
2019-05-26T12:58:50.498Z,980.647
2019-05-26T13:00:55.673Z,980.623
2019-05-26T13:02:49.818Z,980.626
2019-05-26T13:04:50.394Z,980.606
2019-05-26T13:06:50.553Z,980.599
2019-05-26T13:08:50.242Z,980.612
2019-05-26T13:10:49.922Z,980.617
2019-05-26T13:12:50.215Z,980.615
2019-05-26T13:15:06.528Z,980.549
2019-05-26T13:16:49.932Z,980.529
2019-05-26T13:18:49.988Z,980.445
2019-05-26T13:20:50.122Z,980.402
2019-05-26T13:22:50.199Z,980.398
2019-05-26T13:24:50.255Z,980.392
2019-05-26T13:26:50.385Z,980.360
2019-05-26T13:28:50.386Z,980.323
2019-05-26T13:30:50.407Z,980.323
2019-05-26T13:32:50.438Z,980.295
2019-05-26T13:34:49.912Z,980.281
2019-05-26T13:36:50.143Z,980.241
2019-05-26T13:38:50.248Z,980.239
2019-05-26T13:40:50.386Z,980.272
2019-05-26T13:42:50.498Z,980.282
2019-05-26T13:44:50.462Z,980.233
2019-05-26T13:46:50.593Z,980.238
2019-05-26T13:48:49.726Z,980.239
2019-05-26T13:50:49.869Z,980.190
2019-05-26T13:52:49.927Z,980.179
2019-05-26T13:54:49.958Z,980.171
2019-05-26T13:56:50.144Z,980.178
2019-05-26T13:58:50.283Z,980.155
2019-05-26T14:00:50.298Z,980.117
2019-05-26T14:02:50.497Z,980.138
2019-05-26T14:04:49.980Z,980.154
2019-05-26T14:06:50.232Z,980.193
2019-05-26T14:08:50.351Z,980.176
2019-05-26T14:10:50.443Z,980.171
2019-05-26T14:12:50.484Z,980.170
2019-05-26T14:14:50.496Z,980.131
2019-05-26T14:16:49.761Z,980.113
2019-05-26T14:18:49.803Z,980.116
2019-05-26T14:20:49.798Z,980.137
2019-05-26T14:22:50.056Z,980.121
2019-05-26T14:24:54.641Z,980.075
2019-05-26T14:26:49.960Z,980.081
2019-05-26T14:28:49.930Z,980.099
2019-05-26T14:30:50.070Z,980.088
2019-05-26T14:32:50.094Z,980.037
2019-05-26T14:34:50.464Z,980.037
2019-05-26T14:36:49.652Z,980.037
2019-05-26T14:38:49.735Z,980.022
2019-05-26T14:40:49.739Z,979.974
2019-05-26T14:42:49.823Z,979.959
2019-05-26T14:44:49.862Z,979.953
2019-05-26T14:46:49.993Z,979.949
2019-05-26T14:48:50.038Z,979.929
2019-05-26T14:50:50.093Z,979.936
2019-05-26T14:52:50.118Z,979.932
2019-05-26T14:54:50.221Z,979.925
2019-05-26T14:56:50.491Z,979.915
2019-05-26T14:58:49.605Z,979.903
2019-05-26T15:00:49.612Z,979.885
2019-05-26T15:02:49.620Z,979.876
2019-05-26T15:04:50.045Z,979.852
2019-05-26T15:06:50.213Z,979.846
2019-05-26T15:08:50.373Z,979.871
2019-05-26T15:10:50.535Z,979.922
2019-05-26T15:12:49.721Z,979.909
2019-05-26T15:14:49.899Z,979.896
2019-05-26T15:16:50.118Z,979.863
2019-05-26T15:18:50.359Z,979.843
2019-05-26T15:20:50.618Z,979.835
2019-05-26T15:22:49.993Z,979.840
2019-05-26T15:24:50.251Z,979.840
2019-05-26T15:26:50.578Z,979.797
2019-05-26T15:28:49.729Z,979.814
2019-05-26T15:30:49.876Z,979.799
2019-05-26T15:32:50.141Z,979.771
2019-05-26T15:34:49.898Z,979.744
2019-05-26T15:36:50.129Z,979.736
2019-05-26T15:38:50.276Z,979.737
2019-05-26T15:40:50.416Z,979.742
2019-05-26T15:42:50.593Z,979.769
2019-05-26T15:44:49.717Z,979.749
2019-05-26T15:46:50.051Z,979.721
2019-05-26T15:48:50.270Z,979.728
2019-05-26T15:50:50.384Z,979.728
2019-05-26T15:52:50.554Z,979.675
2019-05-26T15:54:49.774Z,979.647
2019-05-26T15:56:50.111Z,979.632
2019-05-26T15:58:50.241Z,979.638
2019-05-26T16:00:50.430Z,979.600
2019-05-26T16:02:50.549Z,979.571
2019-05-26T16:04:50.140Z,979.570
2019-05-26T16:06:50.526Z,979.509
2019-05-26T16:08:49.701Z,979.532
2019-05-26T16:10:49.792Z,979.518
2019-05-26T16:12:49.880Z,979.499
2019-05-26T16:14:49.983Z,979.477
2019-05-26T16:16:51.744Z,979.460
2019-05-26T16:18:49.785Z,979.451
2019-05-26T16:21:03.700Z,979.415
2019-05-26T16:22:50.100Z,979.418
2019-05-26T16:24:50.194Z,979.429
2019-05-26T16:26:50.389Z,979.446
2019-05-26T16:28:50.412Z,979.459
2019-05-26T16:30:50.469Z,979.431
2019-05-26T16:32:50.549Z,979.421
2019-05-26T16:34:50.099Z,979.394
2019-05-26T16:36:50.178Z,979.389
2019-05-26T16:38:50.216Z,979.360
2019-05-26T16:40:50.414Z,979.393
2019-05-26T16:42:50.388Z,979.384
2019-05-26T16:44:50.400Z,979.384
2019-05-26T16:46:57.341Z,979.409
2019-05-26T16:48:55.147Z,979.411
2019-05-26T16:50:50.380Z,979.396
2019-05-26T16:52:54.967Z,979.367
2019-05-26T16:54:50.061Z,979.366
2019-05-26T16:56:50.238Z,979.331
2019-05-26T16:58:50.274Z,979.327
2019-05-26T17:00:50.393Z,979.324
2019-05-26T17:02:50.531Z,979.319
2019-05-26T17:04:49.816Z,979.298
2019-05-26T17:06:50.134Z,979.300
2019-05-26T17:08:50.125Z,979.279
2019-05-26T17:10:50.238Z,979.262
2019-05-26T17:12:50.325Z,979.266
2019-05-26T17:14:50.469Z,979.268
2019-05-26T17:16:49.773Z,979.285
2019-05-26T17:18:50.029Z,979.338
2019-05-26T17:20:50.275Z,979.338
2019-05-26T17:22:50.467Z,979.329
2019-05-26T17:24:50.486Z,979.329
2019-05-26T17:26:49.748Z,979.358
2019-05-26T17:28:49.868Z,979.370
2019-05-26T17:30:49.924Z,979.354
2019-05-26T17:32:50.011Z,979.341
2019-05-26T17:34:49.659Z,979.300
2019-05-26T17:36:49.966Z,979.272
2019-05-26T17:38:50.121Z,979.255
2019-05-26T17:40:50.183Z,979.250
2019-05-26T17:42:50.367Z,979.242
2019-05-26T17:44:50.471Z,979.230
2019-05-26T17:46:49.861Z,979.218
2019-05-26T17:48:49.985Z,979.200
2019-05-26T17:50:50.183Z,979.183
2019-05-26T17:52:50.360Z,979.172
2019-05-26T17:54:50.561Z,979.172
2019-05-26T17:56:50.210Z,979.156
2019-05-26T17:58:50.507Z,979.142
2019-05-26T18:00:49.742Z,979.129
2019-05-26T18:02:50.154Z,979.126
2019-05-26T18:04:49.977Z,979.107
2019-05-26T18:06:50.234Z,979.088
2019-05-26T18:08:50.347Z,979.079
2019-05-26T18:10:50.422Z,979.075
2019-05-26T18:12:50.593Z,979.076
2019-05-26T18:14:49.890Z,979.041
2019-05-26T18:16:50.420Z,979.022
2019-05-26T18:18:49.752Z,979.015
2019-05-26T18:20:49.908Z,978.973
2019-05-26T18:22:50.227Z,978.966
2019-05-26T18:24:59.334Z,978.962
2019-05-26T18:26:50.027Z,978.923
2019-05-26T18:28:50.219Z,978.906
2019-05-26T18:30:50.208Z,978.906
2019-05-26T18:32:50.562Z,978.911
2019-05-26T18:34:50.224Z,978.894
2019-05-26T18:36:50.448Z,978.893
2019-05-26T18:38:50.580Z,978.884
2019-05-26T18:40:49.774Z,978.879
2019-05-26T18:42:50.038Z,978.864
2019-05-26T18:44:50.149Z,978.830
2019-05-26T18:46:54.008Z,978.820
2019-05-26T18:48:50.087Z,978.811
2019-05-26T18:50:50.164Z,978.810
2019-05-26T18:52:50.242Z,978.802
2019-05-26T18:54:50.404Z,978.789
2019-05-26T18:56:49.667Z,978.771
2019-05-26T18:58:49.653Z,978.765
2019-05-26T19:00:50.328Z,978.760
2019-05-26T19:02:49.759Z,978.772
2019-05-26T19:04:50.358Z,978.779
2019-05-26T19:06:49.642Z,978.794
2019-05-26T19:08:49.687Z,978.837
2019-05-26T19:10:49.858Z,978.850
2019-05-26T19:12:49.965Z,978.887
2019-05-26T19:14:50.117Z,978.875
2019-05-26T19:16:50.427Z,978.838
2019-05-26T19:18:50.467Z,978.838
2019-05-26T19:20:50.531Z,978.818
2019-05-26T19:22:53.637Z,978.818
2019-05-26T19:24:49.757Z,978.854
2019-05-26T19:26:50.082Z,978.862
2019-05-26T19:28:50.155Z,978.872
2019-05-26T19:30:50.294Z,978.872
2019-05-26T19:32:50.637Z,978.896
2019-05-26T19:34:50.269Z,978.900
2019-05-26T19:36:50.576Z,978.906
2019-05-26T19:38:49.684Z,978.916
2019-05-26T19:40:49.826Z,978.908
2019-05-26T19:42:49.995Z,978.899
2019-05-26T19:44:50.147Z,978.888
2019-05-26T19:46:53.516Z,978.905
2019-05-26T19:48:49.712Z,978.929
2019-05-26T19:50:49.735Z,978.951
2019-05-26T19:52:50.493Z,978.967
2019-05-26T19:54:50.492Z,978.985
2019-05-26T19:56:49.772Z,979.003
2019-05-26T19:58:49.976Z,979.001
2019-05-26T20:00:49.975Z,979.002
2019-05-26T20:02:49.998Z,979.007
2019-05-26T20:04:50.381Z,979.010
2019-05-26T20:06:49.652Z,979.010
2019-05-26T20:08:49.680Z,979.020
2019-05-26T20:10:49.726Z,979.028
2019-05-26T20:12:49.802Z,979.022
2019-05-26T20:14:49.797Z,979.020
2019-05-26T20:16:50.146Z,979.021
2019-05-26T20:18:50.292Z,979.021
2019-05-26T20:20:50.372Z,979.025
2019-05-26T20:22:50.624Z,979.024
2019-05-26T20:24:49.628Z,979.020
2019-05-26T20:26:49.904Z,979.040
2019-05-26T20:28:49.947Z,979.053
2019-05-26T20:30:50.088Z,979.053
2019-05-26T20:32:50.246Z,979.034
2019-05-26T20:34:50.013Z,979.037
2019-05-26T20:36:50.175Z,979.025
2019-05-26T20:38:50.222Z,979.030
2019-05-26T20:40:50.416Z,979.018
2019-05-26T20:42:50.412Z,978.993
2019-05-26T20:44:50.493Z,978.973
2019-05-26T20:46:49.805Z,978.967
2019-05-26T20:48:49.945Z,978.971
2019-05-26T20:50:50.019Z,978.968
2019-05-26T20:52:50.219Z,978.942
2019-05-26T20:54:49.697Z,978.935
2019-05-26T20:56:49.847Z,978.938
2019-05-26T20:58:49.871Z,978.948
2019-05-26T21:00:53.607Z,978.929
2019-05-26T21:02:49.667Z,978.916
2019-05-26T21:04:50.201Z,978.904
2019-05-26T21:06:50.545Z,978.899
2019-05-26T21:08:49.643Z,978.887
2019-05-26T21:10:49.722Z,978.908
2019-05-26T21:12:49.908Z,978.906
2019-05-26T21:14:49.966Z,978.903
2019-05-26T21:16:50.215Z,978.928
2019-05-26T21:18:50.290Z,978.950
2019-05-26T21:20:50.437Z,978.949
2019-05-26T21:22:50.477Z,978.950
2019-05-26T21:24:50.259Z,978.947
2019-05-26T21:26:50.518Z,978.946
2019-05-26T21:28:50.776Z,978.958
2019-05-26T21:30:49.878Z,978.955
2019-05-26T21:32:49.931Z,978.921
2019-05-26T21:34:50.437Z,978.919
2019-05-26T21:36:49.639Z,978.874
2019-05-26T21:38:49.835Z,978.854
2019-05-26T21:40:50.156Z,978.844
2019-05-26T21:42:50.399Z,978.825
2019-05-26T21:44:49.681Z,978.818
2019-05-26T21:46:49.937Z,978.817
2019-05-26T21:48:50.031Z,978.818
2019-05-26T21:50:50.152Z,978.828
2019-05-26T21:52:50.261Z,978.828
2019-05-26T21:54:50.402Z,978.835
2019-05-26T21:56:49.706Z,978.839
2019-05-26T21:58:49.761Z,978.850
2019-05-26T22:00:49.709Z,978.846
2019-05-26T22:02:49.997Z,978.813
2019-05-26T22:04:49.660Z,978.812
2019-05-26T22:06:49.846Z,978.808
2019-05-26T22:08:49.887Z,978.820
2019-05-26T22:10:49.965Z,978.847
2019-05-26T22:12:50.098Z,978.834
2019-05-26T22:14:50.205Z,978.840
2019-05-26T22:16:50.389Z,978.818
2019-05-26T22:18:50.504Z,978.820
2019-05-26T22:20:49.793Z,978.790
2019-05-26T22:22:49.955Z,978.782
2019-05-26T22:24:49.953Z,978.751
2019-05-26T22:26:50.154Z,978.746
2019-05-26T22:28:50.270Z,978.761
2019-05-26T22:30:50.289Z,978.772
2019-05-26T22:32:50.314Z,978.769
2019-05-26T22:34:49.665Z,978.778
2019-05-26T22:36:49.784Z,978.773
2019-05-26T22:38:49.738Z,978.763
2019-05-26T22:40:49.674Z,978.744
2019-05-26T22:42:49.769Z,978.744
2019-05-26T22:44:49.817Z,978.723
2019-05-26T22:46:49.930Z,978.702
2019-05-26T22:48:49.900Z,978.693
2019-05-26T22:50:49.866Z,978.693
2019-05-26T22:52:49.892Z,978.696
2019-05-26T22:54:49.803Z,978.709
2019-05-26T22:56:49.901Z,978.716
2019-05-26T22:58:49.898Z,978.689
2019-05-26T23:00:49.936Z,978.702
2019-05-26T23:02:49.855Z,978.700
2019-05-26T23:04:50.283Z,978.715
2019-05-26T23:06:49.650Z,978.718
2019-05-26T23:08:49.636Z,978.715
2019-05-26T23:10:50.562Z,978.708
2019-05-26T23:12:50.578Z,978.700
2019-05-26T23:14:50.424Z,978.695
2019-05-26T23:16:50.564Z,978.686
2019-05-26T23:18:50.526Z,978.639
2019-05-26T23:20:50.525Z,978.620
2019-05-26T23:22:49.715Z,978.592
2019-05-26T23:24:49.628Z,978.572
2019-05-26T23:26:49.665Z,978.565
2019-05-26T23:28:49.686Z,978.551
2019-05-26T23:30:49.705Z,978.533
2019-05-26T23:32:49.681Z,978.527
2019-05-26T23:34:49.997Z,978.511
2019-05-26T23:36:50.050Z,978.480
2019-05-26T23:38:49.965Z,978.450
2019-05-26T23:40:49.948Z,978.443
2019-05-26T23:42:49.895Z,978.435
2019-05-26T23:44:49.814Z,978.425
2019-05-26T23:46:49.822Z,978.403
2019-05-26T23:48:49.811Z,978.389
2019-05-26T23:50:49.702Z,978.387
2019-05-26T23:52:49.746Z,978.389
2019-05-26T23:54:49.772Z,978.379
2019-05-26T23:56:49.825Z,978.370
2019-05-26T23:58:49.852Z,978.370
